Time;durP1;ratioP1;P1;durP2;ratioP2;P2;SDS_P1;SDS_P2;PMS_P1;PMS_P2;Temp;Humidity;BMP_temperature;BMP_pressure;BME280_temperature;BME280_humidity;BME280_pressure;Samples;Min_cycle;Max_cycle;Signal;HPM_P1;HPM_P2
2022/11/18 00:01:50;;;;;;;4.60;3.20;;;;;;;;;;5100294;28;20210;-66
2022/11/18 00:04:17;;;;;;;7.07;3.50;;;;;;;;;;5088428;28;20214;-66
2022/11/18 00:06:44;;;;;;;3.87;3.40;;;;;;;;;;5087920;28;20213;-66
2022/11/18 00:09:11;;;;;;;3.83;3.47;;;;;;;;;;5095988;28;20206;-66
2022/11/18 00:14:39;;;;;;;3.40;3.10;;;;;;;;;;5096873;28;20284;-66
2022/11/18 00:17:07;;;;;;;4.23;3.13;;;;;;;;;;5095888;28;20194;-66
2022/11/18 00:19:35;;;;;;;3.60;2.60;;;;;;;;;;5097033;28;20213;-67
2022/11/18 00:22:02;;;;;;;3.80;2.50;;;;;;;;;;5093430;28;20647;-66
2022/11/18 00:24:30;;;;;;;6.70;2.93;;;;;;;;;;5092267;28;20214;-66
2022/11/18 00:26:57;;;;;;;3.00;2.57;;;;;;;;;;5100534;28;20225;-67
2022/11/18 00:29:26;;;;;;;3.20;2.57;;;;;;;;;;5093768;28;20210;-66
2022/11/18 00:31:55;;;;;;;3.90;2.47;;;;;;;;;;5090954;28;20301;-66
2022/11/18 00:34:22;;;;;;;7.03;2.60;;;;;;;;;;5090623;28;20214;-66
2022/11/18 00:36:49;;;;;;;2.27;2.07;;;;;;;;;;5098088;28;20216;-66
2022/11/18 00:39:18;;;;;;;3.03;2.60;;;;;;;;;;5109518;28;20220;-66
2022/11/18 00:44:29;;;;;;;5.27;3.07;;;;;;;;;;5093650;28;20205;-67
2022/11/18 00:46:58;;;;;;;2.90;2.70;;;;;;;;;;5110192;28;20208;-67
2022/11/18 00:49:25;;;;;;;3.03;2.80;;;;;;;;;;5108135;28;20209;-66
2022/11/18 00:51:52;;;;;;;3.03;2.50;;;;;;;;;;5090651;28;20221;-67
2022/11/18 00:54:19;;;;;;;3.07;2.77;;;;;;;;;;5090188;28;20257;-66
2022/11/18 00:56:47;;;;;;;2.97;2.77;;;;;;;;;;5088723;28;20214;-66
2022/11/18 00:59:14;;;;;;;3.07;2.50;;;;;;;;;;5090871;28;20513;-66
2022/11/18 01:01:41;;;;;;;3.13;2.23;;;;;;;;;;5109771;28;20228;-66
2022/11/18 01:04:09;;;;;;;2.87;2.63;;;;;;;;;;5110047;28;20202;-66
2022/11/18 01:06:36;;;;;;;3.73;2.87;;;;;;;;;;5099300;28;20202;-66
2022/11/18 01:09:04;;;;;;;3.73;3.27;;;;;;;;;;5106377;28;20234;-66
2022/11/18 01:14:30;;;;;;;3.80;2.73;;;;;;;;;;5096477;27;20274;-65
2022/11/18 01:16:58;;;;;;;3.53;2.60;;;;;;;;;;5096812;28;20201;-65
2022/11/18 01:19:26;;;;;;;4.70;3.23;;;;;;;;;;5100818;28;20209;-65
2022/11/18 01:21:55;;;;;;;3.50;2.73;;;;;;;;;;5110428;28;20214;-65
2022/11/18 01:24:22;;;;;;;2.87;2.77;;;;;;;;;;5102969;28;20213;-66
2022/11/18 01:26:49;;;;;;;3.37;2.97;;;;;;;;;;5094136;28;20205;-66
2022/11/18 01:29:16;;;;;;;3.50;3.20;;;;;;;;;;5104563;28;20676;-66
2022/11/18 01:31:43;;;;;;;5.30;3.43;;;;;;;;;;5089671;28;20222;-66
2022/11/18 01:34:10;;;;;;;8.07;2.90;;;;;;;;;;5090566;28;20205;-66
2022/11/18 01:36:39;;;;;;;3.87;3.40;;;;;;;;;;5089636;28;20214;-66
2022/11/18 01:39:06;;;;;;;5.30;3.30;;;;;;;;;;5103631;28;20199;-66
2022/11/18 01:41:33;;;;;;;4.47;3.50;;;;;;;;;;5100566;28;20229;-66
2022/11/18 01:44:01;;;;;;;7.30;2.97;;;;;;;;;;5106579;28;20198;-66
2022/11/18 01:46:29;;;;;;;3.33;3.07;;;;;;;;;;5089931;28;20203;-66
2022/11/18 01:48:59;;;;;;;3.40;3.17;;;;;;;;;;5102574;28;20241;-66
2022/11/18 01:51:27;;;;;;;3.63;3.30;;;;;;;;;;5098546;28;20224;-66
2022/11/18 01:53:59;;;;;;;5.23;2.83;;;;;;;;;;5106887;28;20205;-66
2022/11/18 01:56:29;;;;;;;3.37;3.07;;;;;;;;;;5089810;28;20202;-66
2022/11/18 01:58:58;;;;;;;4.37;3.73;;;;;;;;;;5093058;28;20234;-66
2022/11/18 02:01:25;;;;;;;4.50;3.73;;;;;;;;;;5108534;28;20583;-66
2022/11/18 02:03:53;;;;;;;4.73;3.13;;;;;;;;;;5109388;28;20205;-66
2022/11/18 02:06:20;;;;;;;6.90;3.90;;;;;;;;;;5107914;28;20936;-66
2022/11/18 02:08:47;;;;;;;5.20;3.60;;;;;;;;;;5094476;28;20222;-66
2022/11/18 02:13:57;;;;;;;3.83;3.53;;;;;;;;;;5088719;28;20291;-66
2022/11/18 02:16:27;;;;;;;3.60;3.30;;;;;;;;;;5091605;28;20206;-66
2022/11/18 02:18:56;;;;;;;4.90;3.40;;;;;;;;;;5103837;28;20563;-66
2022/11/18 02:21:29;;;;;;;3.53;3.23;;;;;;;;;;5090729;28;20216;-66
2022/11/18 02:24:06;;;;;;;7.53;3.83;;;;;;;;;;5094739;28;20631;-66
2022/11/18 02:26:52;;;;;;;3.27;3.03;;;;;;;;;;5093960;28;20201;-66
2022/11/18 02:29:25;;;;;;;3.80;3.43;;;;;;;;;;5096056;28;20228;-66
2022/11/18 02:31:54;;;;;;;3.93;3.33;;;;;;;;;;5089573;28;20593;-66
2022/11/18 02:34:26;;;;;;;3.47;3.17;;;;;;;;;;5105051;28;20660;-65
2022/11/18 02:36:55;;;;;;;6.03;3.87;;;;;;;;;;5104780;28;20206;-66
2022/11/18 02:39:24;;;;;;;5.03;3.77;;;;;;;;;;5105169;28;20205;-66
2022/11/18 02:41:52;;;;;;;3.77;3.47;;;;;;;;;;5100059;28;20622;-66
2022/11/18 02:44:22;;;;;;;3.83;3.50;;;;;;;;;;5106753;28;20574;-66
2022/11/18 02:46:52;;;;;;;7.97;3.80;;;;;;;;;;5096927;28;20209;-66
2022/11/18 02:49:21;;;;;;;4.17;3.80;;;;;;;;;;5097167;28;20214;-66
2022/11/18 02:51:49;;;;;;;3.77;3.47;;;;;;;;;;5101354;28;20205;-66
2022/11/18 02:54:17;;;;;;;4.70;3.37;;;;;;;;;;5102758;28;20722;-66
2022/11/18 02:56:44;;;;;;;5.50;3.23;;;;;;;;;;5094343;28;20209;-66
2022/11/18 02:59:11;;;;;;;7.30;3.57;;;;;;;;;;5095481;28;20281;-66
2022/11/18 03:01:40;;;;;;;9.40;3.87;;;;;;;;;;5097458;28;20198;-66
2022/11/18 03:04:07;;;;;;;3.93;3.53;;;;;;;;;;5090794;28;20198;-66
2022/11/18 03:06:37;;;;;;;4.77;3.77;;;;;;;;;;5098238;28;20228;-66
2022/11/18 03:09:08;;;;;;;7.53;4.17;;;;;;;;;;5092961;28;20313;-66
2022/11/18 03:11:40;;;;;;;4.10;3.57;;;;;;;;;;5091713;28;20202;-66
2022/11/18 03:14:09;;;;;;;7.80;3.93;;;;;;;;;;5088609;28;20202;-66
2022/11/18 03:16:43;;;;;;;3.33;2.93;;;;;;;;;;5089114;28;20205;-65
2022/11/18 03:19:19;;;;;;;2.83;2.67;;;;;;;;;;5089480;28;20194;-65
2022/11/18 03:21:50;;;;;;;6.77;3.30;;;;;;;;;;5087689;28;20202;-65
2022/11/18 03:24:19;;;;;;;3.23;2.83;;;;;;;;;;5090842;28;20206;-66
2022/11/18 03:26:49;;;;;;;4.03;3.03;;;;;;;;;;5091290;28;20201;-65
2022/11/18 03:29:18;;;;;;;3.80;3.40;;;;;;;;;;5101063;28;20222;-65
2022/11/18 03:31:47;;;;;;;3.33;3.03;;;;;;;;;;5088881;28;20198;-65
2022/11/18 03:34:18;;;;;;;3.03;2.73;;;;;;;;;;5089612;28;20206;-65
2022/11/18 03:36:47;;;;;;;3.77;2.93;;;;;;;;;;5099957;28;20205;-65
2022/11/18 03:39:16;;;;;;;2.70;2.50;;;;;;;;;;5092443;28;20198;-65
2022/11/18 03:41:45;;;;;;;4.77;2.93;;;;;;;;;;5089106;28;20210;-65
2022/11/18 03:44:15;;;;;;;2.90;2.67;;;;;;;;;;5087006;28;20199;-65
2022/11/18 03:46:44;;;;;;;2.67;2.47;;;;;;;;;;5097477;28;20206;-65
2022/11/18 03:49:13;;;;;;;3.17;2.40;;;;;;;;;;5103013;28;20224;-65
2022/11/18 03:51:43;;;;;;;2.77;2.57;;;;;;;;;;5108437;28;20209;-65
2022/11/18 03:54:12;;;;;;;4.23;2.70;;;;;;;;;;5098724;28;20234;-65
2022/11/18 03:56:41;;;;;;;2.83;2.53;;;;;;;;;;5087601;28;20191;-65
2022/11/18 03:59:12;;;;;;;2.80;2.53;;;;;;;;;;5093063;28;20226;-65
2022/11/18 04:01:42;;;;;;;3.43;2.57;;;;;;;;;;5093432;28;20195;-65
2022/11/18 04:04:09;;;;;;;2.87;2.57;;;;;;;;;;5093778;28;20290;-65
2022/11/18 04:06:39;;;;;;;2.67;2.47;;;;;;;;;;5093261;28;20243;-65
2022/11/18 04:09:11;;;;;;;3.40;2.73;;;;;;;;;;5097168;28;20221;-65
2022/11/18 04:14:27;;;;;;;4.80;2.50;;;;;;;;;;5093800;28;20241;-65
2022/11/18 04:16:54;;;;;;;3.90;2.60;;;;;;;;;;5101697;28;20194;-64
2022/11/18 04:19:21;;;;;;;3.00;2.67;;;;;;;;;;5095818;28;20198;-64
2022/11/18 04:21:49;;;;;;;3.30;3.00;;;;;;;;;;5091893;28;20214;-65
2022/11/18 04:24:17;;;;;;;2.83;2.50;;;;;;;;;;5103817;28;20660;-65
2022/11/18 04:26:44;;;;;;;3.17;2.30;;;;;;;;;;5091980;28;20258;-65
2022/11/18 04:29:11;;;;;;;3.03;2.77;;;;;;;;;;5095209;28;20229;-65
2022/11/18 04:31:38;;;;;;;3.03;2.73;;;;;;;;;;5102625;28;20236;-65
2022/11/18 04:34:05;;;;;;;2.73;2.53;;;;;;;;;;5095387;28;20203;-65
2022/11/18 04:36:32;;;;;;;4.23;2.27;;;;;;;;;;5092039;28;20225;-65
2022/11/18 04:38:59;;;;;;;3.60;2.83;;;;;;;;;;5094251;28;20205;-65
2022/11/18 04:44:11;;;;;;;2.70;2.43;;;;;;;;;;5092535;28;20206;-65
2022/11/18 04:46:39;;;;;;;3.67;3.30;;;;;;;;;;5091873;28;20213;-65
2022/11/18 04:49:06;;;;;;;3.67;3.30;;;;;;;;;;5105799;28;20221;-65
2022/11/18 04:51:33;;;;;;;2.87;2.67;;;;;;;;;;5106955;28;20208;-65
2022/11/18 04:54:01;;;;;;;4.43;3.17;;;;;;;;;;5096982;28;20202;-65
2022/11/18 04:56:29;;;;;;;5.47;3.43;;;;;;;;;;5092823;28;20210;-65
2022/11/18 04:58:56;;;;;;;7.63;3.33;;;;;;;;;;5092673;28;20716;-65
2022/11/18 05:01:23;;;;;;;3.20;2.90;;;;;;;;;;5099598;28;20198;-65
2022/11/18 05:03:50;;;;;;;4.30;2.83;;;;;;;;;;5092537;28;20202;-65
2022/11/18 05:06:17;;;;;;;5.97;3.07;;;;;;;;;;5102306;28;20202;-65
2022/11/18 05:08:44;;;;;;;5.60;3.33;;;;;;;;;;5091499;28;20217;-65
2022/11/18 05:13:58;;;;;;;3.83;3.13;;;;;;;;;;5108593;28;20663;-64
2022/11/18 05:16:25;;;;;;;5.27;3.87;;;;;;;;;;5096989;28;20624;-65
2022/11/18 05:18:52;;;;;;;4.57;4.00;;;;;;;;;;5100784;28;20591;-65
2022/11/18 05:21:19;;;;;;;4.27;3.87;;;;;;;;;;5099348;28;20198;-65
2022/11/18 05:23:46;;;;;;;4.03;3.63;;;;;;;;;;5100981;28;20221;-65
2022/11/18 05:26:13;;;;;;;7.60;4.53;;;;;;;;;;5097028;28;20304;-65
2022/11/18 05:28:41;;;;;;;5.67;4.13;;;;;;;;;;5106382;28;20225;-65
2022/11/18 05:31:10;;;;;;;6.30;4.30;;;;;;;;;;5103983;28;20678;-65
2022/11/18 05:33:37;;;;;;;8.80;4.57;;;;;;;;;;5090359;28;20206;-65
2022/11/18 05:36:05;;;;;;;12.03;4.97;;;;;;;;;;5098203;28;20206;-65
2022/11/18 05:38:32;;;;;;;12.57;5.47;;;;;;;;;;5105845;28;20277;-65
2022/11/18 05:40:59;;;;;;;6.80;4.60;;;;;;;;;;5094885;28;20201;-65
2022/11/18 05:43:25;;;;;;;6.23;4.53;;;;;;;;;;5089982;28;20217;-65
2022/11/18 05:45:53;;;;;;;11.47;5.27;;;;;;;;;;5102896;28;20201;-65
2022/11/18 05:48:21;;;;;;;6.83;4.83;;;;;;;;;;5105836;28;20217;-65
2022/11/18 05:50:49;;;;;;;6.00;4.30;;;;;;;;;;5094573;28;20202;-65
2022/11/18 05:53:17;;;;;;;7.27;5.13;;;;;;;;;;5098835;28;20209;-65
2022/11/18 05:55:47;;;;;;;6.07;4.70;;;;;;;;;;5099126;28;20226;-65
2022/11/18 05:58:14;;;;;;;7.80;5.20;;;;;;;;;;5106727;28;20229;-65
2022/11/18 06:00:41;;;;;;;9.93;4.77;;;;;;;;;;5103362;28;20209;-65
2022/11/18 06:03:12;;;;;;;8.37;4.57;;;;;;;;;;5101303;28;20202;-65
2022/11/18 06:05:41;;;;;;;9.50;5.07;;;;;;;;;;5089547;28;20202;-65
2022/11/18 06:08:10;;;;;;;7.47;4.73;;;;;;;;;;5106368;28;20700;-65
2022/11/18 06:10:38;;;;;;;6.77;4.60;;;;;;;;;;5101898;28;20222;-65
2022/11/18 06:13:07;;;;;;;5.43;4.40;;;;;;;;;;5103862;28;20202;-64
2022/11/18 06:15:36;;;;;;;10.07;5.43;;;;;;;;;;5095261;28;20202;-64
2022/11/18 06:18:04;;;;;;;6.17;4.67;;;;;;;;;;5093736;28;20206;-64
2022/11/18 06:20:33;;;;;;;8.80;5.10;;;;;;;;;;5092717;28;20220;-64
2022/11/18 06:23:02;;;;;;;8.10;5.40;;;;;;;;;;5091604;28;20605;-64
2022/11/18 06:25:29;;;;;;;6.57;4.10;;;;;;;;;;5098837;28;20633;-64
2022/11/18 06:27:57;;;;;;;6.27;4.27;;;;;;;;;;5100960;28;20203;-64
2022/11/18 06:30:24;;;;;;;8.47;4.60;;;;;;;;;;5094793;28;20233;-62
2022/11/18 06:32:51;;;;;;;7.80;4.97;;;;;;;;;;5093824;28;20206;-63
2022/11/18 06:35:18;;;;;;;6.67;4.50;;;;;;;;;;5087059;28;20688;-63
2022/11/18 06:37:47;;;;;;;7.20;4.60;;;;;;;;;;5101734;28;20683;-63
2022/11/18 06:40:15;;;;;;;6.00;4.53;;;;;;;;;;5099200;28;20205;-64
2022/11/18 06:45:27;;;;;;;7.23;4.63;;;;;;;;;;5106555;28;20200;-64
2022/11/18 06:47:56;;;;;;;8.10;3.77;;;;;;;;;;5107736;28;20202;-64
2022/11/18 06:50:23;;;;;;;5.73;4.43;;;;;;;;;;5089836;28;20218;-64
2022/11/18 06:52:50;;;;;;;5.47;3.97;;;;;;;;;;5099103;28;20197;-64
2022/11/18 06:55:18;;;;;;;6.03;4.37;;;;;;;;;;5094448;28;20226;-64
2022/11/18 06:57:46;;;;;;;5.50;4.13;;;;;;;;;;5091713;28;20238;-64
2022/11/18 07:00:14;;;;;;;8.57;4.37;;;;;;;;;;5088367;28;20198;-63
2022/11/18 07:02:41;;;;;;;6.33;4.63;;;;;;;;;;5088969;28;20202;-64
2022/11/18 07:05:08;;;;;;;6.80;3.83;;;;;;;;;;5104023;28;20194;-64
2022/11/18 07:07:35;;;;;;;4.57;3.50;;;;;;;;;;5099630;28;20230;-65
2022/11/18 07:10:02;;;;;;;5.73;3.73;;;;;;;;;;5102974;28;20232;-65
2022/11/18 07:12:31;;;;;;;7.57;4.17;;;;;;;;;;5094673;28;20201;-65
2022/11/18 07:14:58;;;;;;;4.80;3.57;;;;;;;;;;5091329;28;20214;-63
2022/11/18 07:17:25;;;;;;;4.43;3.60;;;;;;;;;;5101369;28;20208;-64
2022/11/18 07:19:52;;;;;;;3.43;3.13;;;;;;;;;;5099815;28;20202;-65
2022/11/18 07:22:19;;;;;;;4.83;3.57;;;;;;;;;;5089806;28;20206;-63
2022/11/18 07:24:46;;;;;;;3.27;3.00;;;;;;;;;;5105937;28;20213;-63
2022/11/18 07:27:13;;;;;;;3.10;2.80;;;;;;;;;;5097504;28;20703;-64
2022/11/18 07:29:42;;;;;;;3.40;2.40;;;;;;;;;;5096373;28;20233;-64
2022/11/18 07:32:09;;;;;;;2.50;2.40;;;;;;;;;;5105308;28;20631;-64
2022/11/18 07:34:36;;;;;;;4.17;2.07;;;;;;;;;;5102250;28;20600;-64
2022/11/18 07:37:03;;;;;;;3.03;2.20;;;;;;;;;;5093606;28;20602;-65
2022/11/18 07:39:30;;;;;;;3.13;1.97;;;;;;;;;;5101752;28;20253;-64
2022/11/18 07:41:57;;;;;;;3.07;2.20;;;;;;;;;;5095006;28;20244;-65
2022/11/18 07:44:24;;;;;;;2.37;2.17;;;;;;;;;;5094496;28;20218;-66
2022/11/18 07:46:53;;;;;;;2.23;2.00;;;;;;;;;;5103868;28;20686;-65
2022/11/18 07:49:20;;;;;;;2.53;1.93;;;;;;;;;;5093332;28;20226;-65
2022/11/18 07:51:47;;;;;;;2.83;2.53;;;;;;;;;;5092994;28;20210;-64
2022/11/18 07:54:15;;;;;;;1.93;1.83;;;;;;;;;;5093011;28;20222;-66
2022/11/18 07:56:42;;;;;;;3.03;1.87;;;;;;;;;;5092277;28;20202;-65
2022/11/18 07:59:10;;;;;;;2.17;1.97;;;;;;;;;;5094487;28;20226;-65
2022/11/18 08:01:37;;;;;;;1.60;1.50;;;;;;;;;;5094155;28;20209;-65
2022/11/18 08:04:09;;;;;;;1.27;1.27;;;;;;;;;;5102822;28;20198;-64
2022/11/18 08:06:36;;;;;;;4.93;1.57;;;;;;;;;;5092470;28;20211;-63
2022/11/18 08:09:04;;;;;;;1.43;1.33;;;;;;;;;;5099874;28;20215;-65
2022/11/18 08:11:32;;;;;;;1.60;1.50;;;;;;;;;;5095418;28;20202;-65
2022/11/18 08:13:59;;;;;;;1.27;1.10;;;;;;;;;;5093847;28;20640;-64
2022/11/18 08:16:26;;;;;;;1.53;0.90;;;;;;;;;;5108654;28;20579;-64
2022/11/18 08:18:53;;;;;;;1.20;1.10;;;;;;;;;;5104075;28;20205;-65
2022/11/18 08:21:22;;;;;;;1.10;1.10;;;;;;;;;;5098918;28;20198;-64
2022/11/18 08:23:50;;;;;;;1.20;1.10;;;;;;;;;;5104285;28;20212;-66
2022/11/18 08:26:17;;;;;;;0.90;0.90;;;;;;;;;;5100761;28;20787;-65
2022/11/18 08:28:44;;;;;;;1.00;1.00;;;;;;;;;;5096460;28;20572;-64
2022/11/18 08:31:11;;;;;;;0.80;0.80;;;;;;;;;;5106139;28;20263;-64
2022/11/18 08:33:39;;;;;;;1.30;1.00;;;;;;;;;;5095182;28;20213;-64
2022/11/18 08:36:07;;;;;;;1.30;0.60;;;;;;;;;;5100978;28;20201;-62
2022/11/18 08:38:35;;;;;;;0.60;0.60;;;;;;;;;;5105562;28;20219;-68
2022/11/18 08:41:04;;;;;;;1.30;0.70;;;;;;;;;;5102948;28;20660;-64
2022/11/18 08:43:31;;;;;;;0.80;0.60;;;;;;;;;;5093937;28;20683;-64
2022/11/18 08:45:58;;;;;;;0.60;0.60;;;;;;;;;;5103875;28;20198;-64
2022/11/18 08:48:25;;;;;;;0.50;0.50;;;;;;;;;;5094556;28;20210;-65
2022/11/18 08:50:52;;;;;;;0.63;0.63;;;;;;;;;;5104599;28;20229;-65
2022/11/18 08:53:19;;;;;;;0.40;0.40;;;;;;;;;;5104933;28;20190;-65
2022/11/18 08:55:47;;;;;;;0.50;0.50;;;;;;;;;;5098307;28;20222;-65
2022/11/18 08:58:15;;;;;;;0.50;0.50;;;;;;;;;;5104582;28;20233;-65
2022/11/18 09:00:42;;;;;;;0.77;0.40;;;;;;;;;;5096370;28;20202;-65
2022/11/18 09:03:09;;;;;;;5.70;0.43;;;;;;;;;;5094704;28;20241;-65
2022/11/18 09:05:36;;;;;;;0.57;0.47;;;;;;;;;;5095101;28;20203;-64
2022/11/18 09:08:03;;;;;;;2.73;0.40;;;;;;;;;;5100319;28;20204;-64
2022/11/18 09:10:34;;;;;;;0.40;0.40;;;;;;;;;;5093083;28;21771;-64
2022/11/18 09:13:03;;;;;;;0.20;0.20;;;;;;;;;;5096554;27;20202;-65
2022/11/18 09:15:30;;;;;;;0.10;0.10;;;;;;;;;;5104570;28;20206;-65
2022/11/18 09:17:57;;;;;;;0.20;0.20;;;;;;;;;;5090511;28;20210;-64
2022/11/18 09:20:25;;;;;;;1.10;0.20;;;;;;;;;;5090658;28;20206;-64
2022/11/18 09:22:52;;;;;;;0.23;0.23;;;;;;;;;;5091618;28;20194;-64
2022/11/18 09:25:19;;;;;;;0.13;0.10;;;;;;;;;;5099312;28;20202;-64
2022/11/18 09:27:47;;;;;;;0.20;0.20;;;;;;;;;;5110645;28;20217;-64
2022/11/18 09:30:16;;;;;;;0.10;0.10;;;;;;;;;;5109084;28;20274;-65
2022/11/18 09:32:43;;;;;;;3.30;0.60;;;;;;;;;;5110758;28;20205;-64
2022/11/18 09:35:10;;;;;;;0.40;0.40;;;;;;;;;;5108841;28;20205;-64
2022/11/18 09:37:37;;;;;;;0.20;0.20;;;;;;;;;;5110353;28;20218;-65
2022/11/18 09:40:04;;;;;;;4.50;0.20;;;;;;;;;;5108831;28;20206;-65
2022/11/18 09:42:40;;;;;;;0.40;0.40;;;;;;;;;;5097999;28;20230;-65
2022/11/18 09:45:13;;;;;;;0.23;0.23;;;;;;;;;;5090076;28;20214;-65
2022/11/18 09:47:41;;;;;;;1.03;0.40;;;;;;;;;;5090162;28;20582;-65
2022/11/18 09:50:11;;;;;;;0.40;0.40;;;;;;;;;;5087835;28;20230;-66
2022/11/18 09:52:41;;;;;;;0.10;0.10;;;;;;;;;;5087251;28;20202;-67
2022/11/18 09:55:12;;;;;;;0.83;0.30;;;;;;;;;;5089583;28;20609;-66
2022/11/18 09:57:40;;;;;;;2.47;0.40;;;;;;;;;;5090108;28;20242;-66
2022/11/18 10:00:10;;;;;;;0.30;0.30;;;;;;;;;;5089771;28;20202;-65
2022/11/18 10:02:45;;;;;;;0.30;0.30;;;;;;;;;;5089646;28;20205;-66
2022/11/18 10:05:18;;;;;;;0.40;0.40;;;;;;;;;;5089508;28;20214;-64
2022/11/18 10:07:49;;;;;;;0.80;0.70;;;;;;;;;;5104992;28;20281;-66
2022/11/18 10:10:20;;;;;;;3.70;0.30;;;;;;;;;;5109837;28;20221;-66
2022/11/18 10:12:50;;;;;;;0.40;0.40;;;;;;;;;;5091164;28;20202;-66
2022/11/18 10:15:22;;;;;;;0.37;0.30;;;;;;;;;;5098518;28;20685;-65
2022/11/18 10:17:55;;;;;;;0.40;0.37;;;;;;;;;;5108364;28;20206;-65
2022/11/18 10:20:25;;;;;;;0.60;0.60;;;;;;;;;;5110030;28;20205;-63
2022/11/18 10:22:55;;;;;;;0.87;0.60;;;;;;;;;;5108172;28;20198;-64
2022/11/18 10:25:22;;;;;;;1.20;0.77;;;;;;;;;;5096810;28;20244;-64
2022/11/18 10:27:49;;;;;;;0.50;0.50;;;;;;;;;;5090651;28;20234;-65
2022/11/18 10:30:18;;;;;;;0.63;0.63;;;;;;;;;;5090460;28;20234;-64
2022/11/18 10:32:57;;;;;;;0.63;0.60;;;;;;;;;;5101576;28;20216;-64
2022/11/18 10:35:25;;;;;;;3.17;1.20;;;;;;;;;;5095529;28;20201;-62
2022/11/18 10:38:01;;;;;;;5.33;1.00;;;;;;;;;;5109234;28;20237;-61
2022/11/18 10:40:29;;;;;;;0.50;0.50;;;;;;;;;;5090787;28;20229;-66
2022/11/18 10:42:56;;;;;;;0.47;0.47;;;;;;;;;;5089067;28;20206;-67
2022/11/18 10:45:26;;;;;;;0.40;0.40;;;;;;;;;;5095438;28;20675;-65
2022/11/18 10:47:59;;;;;;;0.43;0.43;;;;;;;;;;5095119;28;20206;-64
2022/11/18 10:50:31;;;;;;;0.30;0.30;;;;;;;;;;5091230;28;20218;-65
2022/11/18 10:52:58;;;;;;;0.30;0.30;;;;;;;;;;5089137;28;20210;-65
2022/11/18 10:55:26;;;;;;;15.93;2.60;;;;;;;;;;5090108;28;20222;-65
2022/11/18 10:57:56;;;;;;;0.53;0.40;;;;;;;;;;5088536;28;20461;-64
2022/11/18 11:00:33;;;;;;;0.63;0.40;;;;;;;;;;5085027;28;20221;-62
2022/11/18 11:03:15;;;;;;;0.63;0.50;;;;;;;;;;5088612;28;20210;-64
2022/11/18 11:05:42;;;;;;;0.33;0.33;;;;;;;;;;5087929;28;20198;-64
2022/11/18 11:08:19;;;;;;;5.53;1.17;;;;;;;;;;5088304;28;20209;-62
2022/11/18 11:10:54;;;;;;;1.03;0.70;;;;;;;;;;5088203;28;20588;-65
2022/11/18 11:13:23;;;;;;;0.40;0.40;;;;;;;;;;5088558;28;20292;-65
2022/11/18 11:15:52;;;;;;;1.30;0.43;;;;;;;;;;5088619;28;20210;-64
2022/11/18 11:21:10;;;;;;;1.10;0.40;;;;;;;;;;5088583;28;20237;-71
2022/11/18 11:23:38;;;;;;;0.47;0.30;;;;;;;;;;5087826;28;20203;-64
2022/11/18 11:26:09;;;;;;;0.30;0.30;;;;;;;;;;5092759;28;20211;-64
2022/11/18 11:28:39;;;;;;;0.20;0.20;;;;;;;;;;5088919;28;20272;-69
2022/11/18 11:31:11;;;;;;;0.60;0.50;;;;;;;;;;5106742;28;20232;-64
2022/11/18 11:33:41;;;;;;;0.53;0.40;;;;;;;;;;5108883;28;20205;-61
2022/11/18 11:36:20;;;;;;;0.40;0.40;;;;;;;;;;5093680;28;20281;-61
2022/11/18 11:38:53;;;;;;;3.83;0.30;;;;;;;;;;5105647;28;20209;-62
2022/11/18 11:41:22;;;;;;;0.37;0.37;;;;;;;;;;5101159;28;20218;-60
2022/11/18 11:44:06;;;;;;;2.27;0.53;;;;;;;;;;5088453;28;20236;-66
2022/11/18 11:46:37;;;;;;;0.53;0.53;;;;;;;;;;5086166;28;20294;-61
2022/11/18 11:49:14;;;;;;;0.43;0.43;;;;;;;;;;5098647;28;20208;-60
2022/11/18 11:51:46;;;;;;;0.33;0.30;;;;;;;;;;5095628;28;20569;-65
2022/11/18 11:54:23;;;;;;;0.40;0.40;;;;;;;;;;5092184;28;20226;-65
2022/11/18 11:56:52;;;;;;;0.40;0.40;;;;;;;;;;5086745;28;20255;-66
2022/11/18 11:59:21;;;;;;;0.30;0.30;;;;;;;;;;5087551;28;20237;-65
2022/11/18 12:01:55;;;;;;;0.50;0.50;;;;;;;;;;5092239;28;20205;-65
2022/11/18 12:04:37;;;;;;;0.30;0.30;;;;;;;;;;5100152;28;20206;-65
2022/11/18 12:07:06;;;;;;;0.97;0.60;;;;;;;;;;5102849;28;20201;-65
2022/11/18 12:09:40;;;;;;;0.40;0.40;;;;;;;;;;5088285;28;20377;-66
2022/11/18 12:12:33;;;;;;;0.40;0.40;;;;;;;;;;5089445;28;20226;-65
2022/11/18 12:14:58;;;;;;;1.70;0.70;;;;;;;;;;5089132;28;20297;-66
2022/11/18 12:17:28;;;;;;;0.40;0.40;;;;;;;;;;5106241;28;20206;-64
2022/11/18 12:19:55;;;;;;;0.40;0.30;;;;;;;;;;5099584;28;20710;-65
2022/11/18 12:22:23;;;;;;;0.40;0.40;;;;;;;;;;5097626;28;20240;-64
2022/11/18 12:24:51;;;;;;;0.53;0.53;;;;;;;;;;5089228;28;20725;-64
2022/11/18 12:27:33;;;;;;;2.10;0.40;;;;;;;;;;5091616;28;20704;-63
2022/11/18 12:30:02;;;;;;;1.97;0.60;;;;;;;;;;5091808;28;20213;-66
2022/11/18 12:32:35;;;;;;;0.70;0.43;;;;;;;;;;5093067;28;20260;-64
2022/11/18 12:35:03;;;;;;;2.13;0.40;;;;;;;;;;5103399;28;20304;-63
2022/11/18 12:37:44;;;;;;;0.30;0.30;;;;;;;;;;5107776;28;20216;-63
2022/11/18 12:40:12;;;;;;;2.20;0.43;;;;;;;;;;5091426;28;20210;-63
2022/11/18 12:45:47;;;;;;;0.40;0.40;;;;;;;;;;5104574;28;20213;-65
2022/11/18 12:48:32;;;;;;;0.40;0.40;;;;;;;;;;5099857;28;20199;-63
2022/11/18 12:51:03;;;;;;;0.50;0.50;;;;;;;;;;5093805;28;20230;-66
2022/11/18 12:53:36;;;;;;;0.52;0.43;;;;;;;;;;5098497;28;20229;-63
2022/11/18 12:56:20;;;;;;;0.57;0.47;;;;;;;;;;5102441;28;20236;-64
2022/11/18 12:58:50;;;;;;;0.63;0.30;;;;;;;;;;5099874;28;20638;-65
2022/11/18 13:01:18;;;;;;;0.20;0.20;;;;;;;;;;5097537;28;20198;-63
2022/11/18 13:03:46;;;;;;;0.30;0.30;;;;;;;;;;5099633;28;20198;-64
2022/11/18 13:06:15;;;;;;;0.70;0.40;;;;;;;;;;5098089;28;20210;-64
2022/11/18 13:08:44;;;;;;;0.60;0.30;;;;;;;;;;5098279;28;20306;-63
2022/11/18 13:19:28;;;;;;;0.47;0.47;;;;;;;;;;5092955;28;20248;-65
2022/11/18 13:24:46;;;;;;;0.25;0.25;;;;;;;;;;5103278;28;20288;-67
2022/11/18 13:27:19;;;;;;;1.73;0.45;;;;;;;;;;5098054;28;20206;-64
2022/11/18 13:29:48;;;;;;;2.35;1.02;;;;;;;;;;5098418;28;20212;-65
2022/11/18 13:32:20;;;;;;;0.90;0.85;;;;;;;;;;5099741;28;21001;-63
2022/11/18 13:34:49;;;;;;;0.30;0.30;;;;;;;;;;5103652;28;20719;-65
2022/11/18 13:37:18;;;;;;;0.60;0.52;;;;;;;;;;5088855;28;20288;-64
2022/11/18 13:39:48;;;;;;;4.03;0.30;;;;;;;;;;5087631;28;20305;-67
2022/11/18 13:42:17;;;;;;;0.57;0.50;;;;;;;;;;5089211;28;20221;-63
2022/11/18 13:44:45;;;;;;;0.77;0.43;;;;;;;;;;5087163;28;20941;-65
2022/11/18 13:47:20;;;;;;;0.73;0.35;;;;;;;;;;5104870;28;20206;-65
2022/11/18 13:49:51;;;;;;;0.32;0.22;;;;;;;;;;5089653;28;20576;-62
2022/11/18 13:52:20;;;;;;;0.55;0.50;;;;;;;;;;5105304;28;20315;-65
2022/11/18 13:54:50;;;;;;;0.35;0.32;;;;;;;;;;5096359;28;20659;-65
2022/11/18 13:57:19;;;;;;;1.00;0.40;;;;;;;;;;5085366;28;20221;-64
2022/11/18 13:59:46;;;;;;;0.45;0.20;;;;;;;;;;5090826;28;20272;-65
2022/11/18 14:02:15;;;;;;;0.40;0.30;;;;;;;;;;5088979;28;20206;-64
2022/11/18 14:04:50;;;;;;;1.65;0.50;;;;;;;;;;5090787;28;20213;-65
2022/11/18 14:07:23;;;;;;;1.75;0.52;;;;;;;;;;5097481;28;20293;-65
2022/11/18 14:09:56;;;;;;;0.33;0.33;;;;;;;;;;5087515;28;20217;-67
2022/11/18 14:12:24;;;;;;;1.55;0.50;;;;;;;;;;5093525;28;20574;-64
2022/11/18 14:14:51;;;;;;;0.40;0.40;;;;;;;;;;5104333;28;20893;-65
2022/11/18 14:17:20;;;;;;;0.40;0.40;;;;;;;;;;5091509;28;20206;-65
2022/11/18 14:19:47;;;;;;;1.03;0.50;;;;;;;;;;5104707;28;20209;-65
2022/11/18 14:22:16;;;;;;;2.63;0.53;;;;;;;;;;5085298;28;20206;-65
2022/11/18 14:24:44;;;;;;;0.20;0.20;;;;;;;;;;5091397;28;20210;-65
2022/11/18 14:27:39;;;;;;;0.30;0.30;;;;;;;;;;5098845;28;20679;-65
2022/11/18 14:30:36;;;;;;;0.37;0.30;;;;;;;;;;5095365;28;20694;-65
2022/11/18 14:33:14;;;;;;;1.40;0.30;;;;;;;;;;5010070;28;20382;-65
2022/11/18 14:35:42;;;;;;;1.23;0.40;;;;;;;;;;5081131;27;20201;-64
2022/11/18 14:38:12;;;;;;;0.60;0.40;;;;;;;;;;5091753;28;20212;-65
2022/11/18 14:40:39;;;;;;;0.33;0.30;;;;;;;;;;5107945;28;20326;-65
2022/11/18 14:43:10;;;;;;;1.23;0.40;;;;;;;;;;5097400;28;20202;-65
2022/11/18 14:45:38;;;;;;;2.30;0.53;;;;;;;;;;5106077;28;20205;-65
2022/11/18 14:48:06;;;;;;;0.60;0.60;;;;;;;;;;5094922;28;20210;-65
2022/11/18 14:50:33;;;;;;;0.93;0.50;;;;;;;;;;5090654;28;20245;-65
2022/11/18 14:53:00;;;;;;;0.33;0.33;;;;;;;;;;5090959;28;20226;-65
2022/11/18 14:55:28;;;;;;;1.13;0.40;;;;;;;;;;5106782;28;20233;-65
2022/11/18 14:57:56;;;;;;;1.43;0.73;;;;;;;;;;5102157;28;20233;-64
2022/11/18 15:00:24;;;;;;;1.67;0.90;;;;;;;;;;5097008;28;20665;-64
2022/11/18 15:02:53;;;;;;;2.33;1.10;;;;;;;;;;5089074;28;20285;-64
2022/11/18 15:05:20;;;;;;;1.07;0.97;;;;;;;;;;5085139;28;20289;-64
2022/11/18 15:07:47;;;;;;;0.70;0.70;;;;;;;;;;5096841;28;20220;-65
2022/11/18 15:10:15;;;;;;;0.60;0.60;;;;;;;;;;5106039;28;20214;-64
2022/11/18 15:12:42;;;;;;;1.77;0.70;;;;;;;;;;5104464;28;20222;-64
2022/11/18 15:15:10;;;;;;;0.87;0.87;;;;;;;;;;5090586;28;20209;-65
2022/11/18 15:17:38;;;;;;;0.70;0.70;;;;;;;;;;5106993;28;20694;-66
2022/11/18 15:20:05;;;;;;;1.53;1.37;;;;;;;;;;5094270;28;20198;-69
2022/11/18 15:22:33;;;;;;;1.43;1.27;;;;;;;;;;5088494;28;20743;-67
2022/11/18 15:25:00;;;;;;;1.50;1.40;;;;;;;;;;5092154;28;20225;-64
2022/11/18 15:27:27;;;;;;;2.53;1.10;;;;;;;;;;5106891;28;20213;-64
2022/11/18 15:29:54;;;;;;;4.87;1.10;;;;;;;;;;5099439;28;20213;-64
2022/11/18 15:32:21;;;;;;;1.30;1.13;;;;;;;;;;5105999;28;20225;-64
2022/11/18 15:34:50;;;;;;;30.03;9.37;;;;;;;;;;5105236;28;20196;-64